Time;durP1;ratioP1;P1;durP2;ratioP2;P2;SDS_P1;SDS_P2;PMS_P1;PMS_P2;Temp;Humidity;BMP_temperature;BMP_pressure;BME280_temperature;BME280_humidity;BME280_pressure;Samples;Min_cycle;Max_cycle;Signal;HPM_P1;HPM_P2
2022/11/02 00:02:08;;;;;;;;;;;14.50;74.40;;;;;;9181257;19;19927;-65
2022/11/02 00:05:14;;;;;;;;;;;14.50;74.40;;;;;;9178244;19;19927;-65
2022/11/02 00:08:18;;;;;;;;;;;14.40;74.30;;;;;;9181095;19;19930;-65
2022/11/02 00:11:23;;;;;;;;;;;14.50;74.30;;;;;;9181069;19;19947;-64
2022/11/02 00:14:27;;;;;;;;;;;14.50;74.30;;;;;;9180153;19;19915;-64
2022/11/02 00:17:30;;;;;;;;;;;14.50;74.40;;;;;;9174190;19;19937;-65
2022/11/02 00:20:36;;;;;;;;;;;14.40;74.30;;;;;;9180680;19;20344;-63
2022/11/02 00:23:41;;;;;;;;;;;14.40;74.30;;;;;;9179953;19;19925;-65
2022/11/02 00:26:46;;;;;;;;;;;14.40;74.30;;;;;;9180607;19;19923;-65
2022/11/02 00:29:50;;;;;;;;;;;14.40;74.30;;;;;;9181203;19;20340;-64
2022/11/02 00:32:53;;;;;;;;;;;14.40;74.30;;;;;;9180310;19;20739;-63
2022/11/02 00:35:56;;;;;;;;;;;14.40;74.40;;;;;;9178039;19;20357;-67
2022/11/02 00:39:00;;;;;;;;;;;14.50;74.40;;;;;;9179829;19;19931;-65
2022/11/02 00:42:05;;;;;;;;;;;14.40;74.40;;;;;;9179985;19;20247;-66
2022/11/02 00:45:10;;;;;;;;;;;14.40;74.40;;;;;;9178083;19;20299;-67
2022/11/02 00:48:13;;;;;;;;;;;14.40;74.40;;;;;;9178295;19;19922;-64
2022/11/02 00:51:16;;;;;;;;;;;14.40;74.40;;;;;;9178191;19;20282;-65
2022/11/02 00:54:21;;;;;;;;;;;14.40;74.40;;;;;;9177487;19;20154;-65
2022/11/02 00:57:33;;;;;;;;;;;14.40;74.50;;;;;;9177472;19;20336;-63
2022/11/02 01:00:37;;;;;;;;;;;14.40;74.40;;;;;;9179537;19;19919;-66
2022/11/02 01:03:40;;;;;;;;;;;14.40;74.40;;;;;;9176589;19;19952;-66
2022/11/02 01:06:44;;;;;;;;;;;14.40;74.40;;;;;;9179065;19;19935;-65
2022/11/02 01:09:47;;;;;;;;;;;14.40;74.50;;;;;;9177176;19;19918;-64
2022/11/02 01:12:53;;;;;;;;;;;14.40;74.50;;;;;;9177619;19;19940;-67
2022/11/02 01:15:56;;;;;;;;;;;14.40;74.50;;;;;;9171111;19;19952;-67
2022/11/02 01:19:00;;;;;;;;;;;14.40;74.50;;;;;;9177467;19;20412;-66
2022/11/02 01:22:04;;;;;;;;;;;14.40;74.50;;;;;;9179288;19;19956;-64
2022/11/02 01:25:08;;;;;;;;;;;14.40;74.50;;;;;;9175126;19;19982;-66
2022/11/02 01:28:13;;;;;;;;;;;14.40;74.50;;;;;;9178066;19;19941;-63
2022/11/02 01:31:16;;;;;;;;;;;14.40;74.50;;;;;;9177542;19;20459;-63
2022/11/02 01:34:20;;;;;;;;;;;14.40;74.50;;;;;;9176132;19;19925;-62
2022/11/02 01:37:24;;;;;;;;;;;14.40;74.50;;;;;;9178287;19;19943;-65
2022/11/02 01:40:27;;;;;;;;;;;14.40;74.50;;;;;;9178865;19;19943;-64
2022/11/02 01:43:33;;;;;;;;;;;14.40;74.50;;;;;;9177625;19;19914;-65
2022/11/02 01:46:39;;;;;;;;;;;14.40;74.60;;;;;;9173689;19;19923;-63
2022/11/02 01:49:43;;;;;;;;;;;14.40;74.60;;;;;;9177821;19;19995;-65
2022/11/02 01:52:47;;;;;;;;;;;14.40;74.60;;;;;;9177154;19;19929;-66
2022/11/02 01:55:51;;;;;;;;;;;14.40;74.60;;;;;;9177305;19;19922;-64
2022/11/02 01:58:58;;;;;;;;;;;14.30;74.60;;;;;;9176960;19;19914;-65
2022/11/02 02:02:04;;;;;;;;;;;14.30;74.60;;;;;;9177385;19;19919;-66
2022/11/02 02:05:09;;;;;;;;;;;14.30;74.60;;;;;;9172397;19;20248;-64
2022/11/02 02:08:13;;;;;;;;;;;14.30;74.70;;;;;;9176747;19;19910;-65
2022/11/02 02:11:28;;;;;;;;;;;14.20;74.60;;;;;;9174808;19;19948;-63
2022/11/02 02:14:34;;;;;;;;;;;14.20;74.60;;;;;;9174542;19;19926;-65
2022/11/02 02:17:42;;;;;;;;;;;14.20;74.70;;;;;;9172072;19;19953;-65
2022/11/02 02:20:54;;;;;;;;;;;14.20;74.80;;;;;;9181462;19;19922;-65
2022/11/02 02:24:22;;;;;;;;;;;14.20;74.70;;;;;;9182154;19;19925;-65
2022/11/02 02:27:30;;;;;;;;;;;14.20;74.70;;;;;;9183949;19;19929;-65
2022/11/02 02:30:38;;;;;;;;;;;14.20;74.80;;;;;;9183677;19;19918;-66
2022/11/02 02:33:44;;;;;;;;;;;14.20;74.80;;;;;;9183348;19;19911;-65
2022/11/02 02:36:50;;;;;;;;;;;14.20;74.80;;;;;;9183111;19;19929;-65
2022/11/02 02:39:58;;;;;;;;;;;14.10;74.70;;;;;;9183484;19;19923;-65
2022/11/02 02:43:05;;;;;;;;;;;14.10;74.70;;;;;;9184119;19;19930;-65
2022/11/02 02:46:14;;;;;;;;;;;14.00;74.70;;;;;;9180479;19;19936;-65
2022/11/02 02:49:21;;;;;;;;;;;14.00;74.80;;;;;;9183851;19;19923;-63
2022/11/02 02:52:26;;;;;;;;;;;13.90;74.80;;;;;;9183195;19;19934;-65
2022/11/02 02:55:32;;;;;;;;;;;13.80;74.80;;;;;;9182054;19;19989;-64
2022/11/02 02:58:39;;;;;;;;;;;13.70;74.90;;;;;;9181923;19;19907;-63
2022/11/02 03:01:45;;;;;;;;;;;13.70;74.90;;;;;;9183895;19;19922;-64
2022/11/02 03:04:49;;;;;;;;;;;13.60;74.90;;;;;;9181464;19;19914;-64
2022/11/02 03:07:53;;;;;;;;;;;13.60;75.00;;;;;;9181768;19;20345;-64
2022/11/02 03:11:02;;;;;;;;;;;13.50;75.00;;;;;;9183208;19;20639;-64
2022/11/02 03:14:11;;;;;;;;;;;13.50;75.00;;;;;;9183245;19;19906;-64
2022/11/02 03:17:19;;;;;;;;;;;13.40;75.00;;;;;;9177795;19;19926;-64
2022/11/02 03:20:29;;;;;;;;;;;13.30;75.00;;;;;;9181163;19;20379;-63
2022/11/02 03:23:34;;;;;;;;;;;13.30;75.00;;;;;;9180675;19;19922;-63
2022/11/02 03:26:42;;;;;;;;;;;13.20;75.10;;;;;;9177223;19;19929;-66
2022/11/02 03:29:49;;;;;;;;;;;13.20;75.10;;;;;;9179587;19;19983;-63
2022/11/02 03:32:58;;;;;;;;;;;13.20;75.20;;;;;;9181917;19;19952;-65
2022/11/02 03:36:04;;;;;;;;;;;13.10;75.20;;;;;;9182629;19;19922;-65
2022/11/02 03:39:09;;;;;;;;;;;13.10;75.20;;;;;;9181306;19;19922;-64
2022/11/02 03:42:16;;;;;;;;;;;13.00;75.10;;;;;;9182355;19;19990;-63
2022/11/02 03:45:22;;;;;;;;;;;13.00;75.80;;;;;;9178676;19;19922;-67
2022/11/02 03:48:31;;;;;;;;;;;13.00;75.20;;;;;;9181463;19;19918;-66
2022/11/02 03:51:38;;;;;;;;;;;13.00;75.20;;;;;;9180793;19;19917;-64
2022/11/02 03:54:44;;;;;;;;;;;12.90;75.30;;;;;;9182745;19;19922;-64
2022/11/02 03:57:49;;;;;;;;;;;12.90;75.30;;;;;;9180214;19;19933;-64
2022/11/02 04:00:58;;;;;;;;;;;12.80;75.30;;;;;;9179629;19;19968;-64
2022/11/02 04:04:04;;;;;;;;;;;12.80;75.30;;;;;;9179312;19;19956;-64
2022/11/02 04:07:09;;;;;;;;;;;12.80;75.40;;;;;;9179989;19;19918;-66
2022/11/02 04:10:13;;;;;;;;;;;12.70;75.30;;;;;;9179867;19;20260;-64
2022/11/02 04:16:33;;;;;;;;;;;12.60;75.30;;;;;;9174747;19;20284;-64
2022/11/02 04:19:39;;;;;;;;;;;12.60;75.30;;;;;;9178490;19;19952;-64
2022/11/02 04:26:03;;;;;;;;;;;12.50;75.40;;;;;;9178894;19;19914;-65
2022/11/02 04:29:18;;;;;;;;;;;12.50;75.40;;;;;;9179286;19;19978;-65
2022/11/02 04:35:41;;;;;;;;;;;12.40;75.50;;;;;;9177579;19;20260;-65
2022/11/02 04:38:45;;;;;;;;;;;12.40;75.50;;;;;;9178453;19;19915;-64
2022/11/02 04:41:59;;;;;;;;;;;12.30;75.50;;;;;;9177409;19;19918;-64
2022/11/02 04:45:08;;;;;;;;;;;12.30;75.50;;;;;;9177034;19;19915;-64
2022/11/02 04:48:11;;;;;;;;;;;12.30;75.60;;;;;;9177766;19;20348;-64
2022/11/02 04:51:17;;;;;;;;;;;12.30;75.60;;;;;;9178783;19;19926;-64
2022/11/02 04:54:21;;;;;;;;;;;12.30;75.70;;;;;;9180918;19;19927;-64
2022/11/02 04:57:29;;;;;;;;;;;12.30;75.60;;;;;;9176498;19;19948;-63
2022/11/02 05:00:35;;;;;;;;;;;12.30;75.70;;;;;;9177914;19;19923;-64
2022/11/02 05:03:38;;;;;;;;;;;12.30;75.70;;;;;;9176750;19;20340;-63
2022/11/02 05:06:45;;;;;;;;;;;12.20;75.60;;;;;;9174146;19;19999;-64
2022/11/02 05:09:48;;;;;;;;;;;12.30;75.70;;;;;;9176910;19;19926;-63
2022/11/02 05:12:56;;;;;;;;;;;12.30;75.80;;;;;;9177946;19;19927;-63
2022/11/02 05:16:01;;;;;;;;;;;12.30;75.80;;;;;;9172871;19;19911;-65
2022/11/02 05:19:05;;;;;;;;;;;12.30;75.80;;;;;;9177999;19;19929;-66
2022/11/02 05:22:16;;;;;;;;;;;12.30;75.80;;;;;;9178296;19;19952;-63
2022/11/02 05:25:20;;;;;;;;;;;12.30;75.80;;;;;;9174569;19;19919;-64
2022/11/02 05:28:24;;;;;;;;;;;12.40;75.80;;;;;;9178171;19;19919;-67
2022/11/02 05:31:28;;;;;;;;;;;12.40;75.90;;;;;;9179320;19;20461;-65
2022/11/02 05:34:33;;;;;;;;;;;12.40;75.80;;;;;;9176399;19;19982;-64
2022/11/02 05:37:38;;;;;;;;;;;12.50;75.80;;;;;;9175887;19;19918;-65
2022/11/02 05:40:42;;;;;;;;;;;12.50;75.90;;;;;;9175721;19;19973;-65
2022/11/02 05:43:47;;;;;;;;;;;12.50;75.90;;;;;;9175404;19;19994;-65
2022/11/02 05:46:52;;;;;;;;;;;12.60;75.80;;;;;;9172377;19;19942;-66
2022/11/02 05:49:55;;;;;;;;;;;12.60;75.80;;;;;;9178172;19;19926;-64
2022/11/02 05:53:01;;;;;;;;;;;12.60;75.80;;;;;;9177518;19;19946;-65
2022/11/02 05:56:05;;;;;;;;;;;12.70;75.80;;;;;;9185234;19;19925;-65
2022/11/02 05:59:09;;;;;;;;;;;12.70;75.80;;;;;;9183831;19;19930;-64
2022/11/02 06:02:12;;;;;;;;;;;12.70;75.90;;;;;;9184577;19;19952;-65
2022/11/02 06:05:15;;;;;;;;;;;12.70;75.80;;;;;;9182407;19;20317;-65
2022/11/02 06:08:21;;;;;;;;;;;12.70;75.80;;;;;;9185296;19;19939;-64
2022/11/02 06:11:24;;;;;;;;;;;12.70;75.80;;;;;;9184865;19;19930;-65
2022/11/02 06:14:28;;;;;;;;;;;12.80;75.80;;;;;;9185959;19;19982;-66
2022/11/02 06:17:37;;;;;;;;;;;12.80;75.80;;;;;;9178102;19;19927;-64
2022/11/02 06:20:40;;;;;;;;;;;12.80;75.80;;;;;;9184360;19;19930;-66
2022/11/02 06:23:47;;;;;;;;;;;12.80;75.80;;;;;;9184448;19;19910;-65
2022/11/02 06:26:51;;;;;;;;;;;12.80;75.80;;;;;;9180367;19;19929;-64
2022/11/02 06:29:54;;;;;;;;;;;12.80;75.80;;;;;;9183132;19;19929;-65
2022/11/02 06:32:57;;;;;;;;;;;12.90;75.80;;;;;;9182094;19;19930;-63
2022/11/02 06:36:09;;;;;;;;;;;12.90;75.80;;;;;;9183955;19;19944;-65
2022/11/02 06:39:14;;;;;;;;;;;12.90;75.80;;;;;;9182567;19;19927;-63
2022/11/02 06:42:18;;;;;;;;;;;12.90;75.80;;;;;;9184551;19;19931;-63
2022/11/02 06:45:21;;;;;;;;;;;12.90;75.80;;;;;;9183056;19;19967;-65
2022/11/02 06:48:25;;;;;;;;;;;13.00;75.80;;;;;;9184183;19;19927;-63
2022/11/02 06:51:36;;;;;;;;;;;13.00;75.80;;;;;;9179457;19;19926;-65
2022/11/02 06:54:41;;;;;;;;;;;13.00;75.80;;;;;;9181866;19;19922;-65
2022/11/02 06:57:45;;;;;;;;;;;13.00;75.80;;;;;;9179991;19;20348;-65
2022/11/02 07:00:49;;;;;;;;;;;13.00;75.70;;;;;;9180633;19;19930;-64
2022/11/02 07:03:52;;;;;;;;;;;13.10;75.80;;;;;;9171067;19;19994;-64
2022/11/02 07:06:56;;;;;;;;;;;13.10;75.90;;;;;;9174427;19;19966;-65
2022/11/02 07:10:01;;;;;;;;;;;13.10;75.90;;;;;;9176893;19;19918;-65
2022/11/02 07:13:05;;;;;;;;;;;13.00;75.70;;;;;;9175762;19;20348;-65
2022/11/02 07:16:09;;;;;;;;;;;13.10;75.80;;;;;;9172552;19;20304;-64
2022/11/02 07:19:12;;;;;;;;;;;13.10;75.80;;;;;;9180142;19;19941;-65
2022/11/02 07:22:16;;;;;;;;;;;13.10;76.40;;;;;;9181653;19;19940;-64
2022/11/02 07:25:21;;;;;;;;;;;13.20;75.90;;;;;;9181019;19;19933;-65
2022/11/02 07:28:25;;;;;;;;;;;13.20;75.90;;;;;;9180898;19;20341;-65
2022/11/02 07:31:28;;;;;;;;;;;13.10;75.80;;;;;;9182094;19;20410;-64
2022/11/02 07:34:31;;;;;;;;;;;13.20;75.80;;;;;;9182670;19;19929;-67
2022/11/02 07:37:35;;;;;;;;;;;13.20;75.80;;;;;;9182064;19;19938;-67
2022/11/02 07:40:40;;;;;;;;;;;13.30;75.90;;;;;;9179455;19;20257;-66
2022/11/02 07:43:44;;;;;;;;;;;13.20;75.80;;;;;;9181569;19;19925;-66
2022/11/02 07:47:05;;;;;;;;;;;13.30;75.90;;;;;;9177690;19;20266;-66
2022/11/02 07:50:09;;;;;;;;;;;13.20;75.80;;;;;;9180659;19;19915;-67
2022/11/02 07:53:13;;;;;;;;;;;13.30;75.80;;;;;;9180170;19;19922;-67
2022/11/02 07:56:18;;;;;;;;;;;13.30;75.80;;;;;;9181362;19;19941;-66
2022/11/02 07:59:21;;;;;;;;;;;13.30;75.80;;;;;;9181456;19;19994;-66
2022/11/02 08:02:25;;;;;;;;;;;13.30;75.90;;;;;;9180129;19;19926;-66
2022/11/02 08:05:29;;;;;;;;;;;13.30;75.80;;;;;;9176892;19;19926;-66
2022/11/02 08:08:33;;;;;;;;;;;13.30;75.80;;;;;;9178095;19;19943;-67
2022/11/02 08:11:38;;;;;;;;;;;13.30;75.80;;;;;;9174159;19;20536;-67
2022/11/02 08:14:42;;;;;;;;;;;13.40;75.90;;;;;;9170979;19;19934;-66
2022/11/02 08:17:45;;;;;;;;;;;13.40;75.90;;;;;;9169316;19;20413;-66
2022/11/02 08:20:49;;;;;;;;;;;13.40;75.90;;;;;;9172688;19;19923;-66
2022/11/02 08:23:54;;;;;;;;;;;13.40;75.90;;;;;;9172081;19;19919;-67
2022/11/02 08:27:03;;;;;;;;;;;13.40;75.90;;;;;;9171355;19;19922;-67
2022/11/02 08:30:07;;;;;;;;;;;13.50;75.90;;;;;;9173799;19;19964;-67
2022/11/02 08:33:12;;;;;;;;;;;13.40;75.90;;;;;;9177504;19;19923;-66
2022/11/02 08:36:15;;;;;;;;;;;13.50;75.90;;;;;;9178105;19;19984;-67
2022/11/02 08:39:19;;;;;;;;;;;13.50;76.00;;;;;;9178856;19;20271;-66
2022/11/02 08:42:24;;;;;;;;;;;13.60;75.90;;;;;;9176001;19;19919;-67
2022/11/02 08:45:28;;;;;;;;;;;13.60;75.90;;;;;;9169840;19;20023;-67
2022/11/02 08:48:41;;;;;;;;;;;13.60;76.50;;;;;;9172008;19;19922;-67
2022/11/02 08:51:45;;;;;;;;;;;13.70;75.90;;;;;;9173877;19;19944;-67
2022/11/02 08:54:48;;;;;;;;;;;13.60;75.80;;;;;;9174621;19;19922;-67
2022/11/02 08:57:54;;;;;;;;;;;13.70;75.80;;;;;;9177717;19;19918;-67
2022/11/02 09:00:58;;;;;;;;;;;13.70;75.80;;;;;;9172101;19;19945;-67
2022/11/02 09:04:01;;;;;;;;;;;13.70;75.80;;;;;;9172564;19;19922;-66
2022/11/02 09:07:05;;;;;;;;;;;13.80;75.80;;;;;;9170662;19;19982;-67
2022/11/02 09:10:08;;;;;;;;;;;13.80;75.70;;;;;;9172359;19;20048;-67
2022/11/02 09:13:17;;;;;;;;;;;13.80;75.80;;;;;;9174160;19;19926;-66
2022/11/02 09:16:20;;;;;;;;;;;13.80;75.70;;;;;;9172067;19;19922;-67
2022/11/02 09:19:23;;;;;;;;;;;13.80;75.60;;;;;;9170508;19;20364;-66
2022/11/02 09:22:27;;;;;;;;;;;13.80;75.60;;;;;;9175836;19;19918;-65
2022/11/02 09:25:30;;;;;;;;;;;13.80;75.60;;;;;;9171983;19;19933;-65
2022/11/02 09:28:36;;;;;;;;;;;13.80;75.50;;;;;;9167185;19;19926;-66
2022/11/02 09:31:44;;;;;;;;;;;13.80;75.60;;;;;;9174008;19;20027;-65
2022/11/02 09:34:49;;;;;;;;;;;13.90;75.60;;;;;;9177109;19;19948;-66
2022/11/02 09:37:52;;;;;;;;;;;13.90;75.70;;;;;;9177556;19;19939;-67
2022/11/02 09:41:02;;;;;;;;;;;13.90;75.60;;;;;;9176739;19;20003;-64
2022/11/02 09:44:08;;;;;;;;;;;13.90;75.60;;;;;;9176716;19;19925;-66
2022/11/02 09:47:14;;;;;;;;;;;14.00;75.70;;;;;;9173822;19;19918;-65
2022/11/02 09:50:42;;;;;;;;;;;14.10;75.70;;;;;;9177159;19;19923;-66
2022/11/02 09:53:51;;;;;;;;;;;14.10;75.60;;;;;;9177301;19;19970;-66
2022/11/02 09:56:58;;;;;;;;;;;14.20;75.70;;;;;;9176560;19;19926;-66
2022/11/02 10:00:02;;;;;;;;;;;14.30;75.60;;;;;;9176019;19;19978;-66
2022/11/02 10:03:18;;;;;;;;;;;14.40;75.60;;;;;;9176844;19;20336;-67
2022/11/02 10:06:23;;;;;;;;;;;14.50;75.50;;;;;;9170489;19;20371;-65
2022/11/02 10:09:29;;;;;;;;;;;14.60;75.50;;;;;;9169672;19;20329;-65
2022/11/02 10:12:39;;;;;;;;;;;14.60;75.40;;;;;;9170577;19;19958;-66
2022/11/02 10:15:46;;;;;;;;;;;14.70;75.40;;;;;;9170634;19;20371;-66
2022/11/02 10:18:52;;;;;;;;;;;14.80;75.40;;;;;;9173350;19;20447;-66
2022/11/02 10:21:57;;;;;;;;;;;14.80;75.30;;;;;;9169250;19;19919;-68
2022/11/02 10:25:01;;;;;;;;;;;14.90;75.20;;;;;;9172904;19;19923;-66
2022/11/02 10:28:10;;;;;;;;;;;14.90;75.10;;;;;;9175507;19;19919;-65
2022/11/02 10:31:18;;;;;;;;;;;14.90;75.10;;;;;;9172319;19;19930;-65
2022/11/02 10:34:25;;;;;;;;;;;15.00;75.10;;;;;;9172062;19;19937;-64
2022/11/02 10:37:34;;;;;;;;;;;15.00;75.10;;;;;;9175420;19;19970;-65
2022/11/02 10:40:47;;;;;;;;;;;15.10;75.10;;;;;;9179072;19;19922;-65
2022/11/02 10:44:00;;;;;;;;;;;15.10;75.10;;;;;;9183371;19;19919;-66
2022/11/02 10:47:06;;;;;;;;;;;15.10;75.00;;;;;;9179491;19;20248;-66
2022/11/02 10:50:18;;;;;;;;;;;15.20;75.00;;;;;;9183352;19;19919;-65
2022/11/02 10:53:22;;;;;;;;;;;15.20;75.00;;;;;;9183818;19;20228;-67
2022/11/02 10:56:47;;;;;;;;;;;15.30;75.00;;;;;;9181811;19;19915;-66
2022/11/02 11:00:17;;;;;;;;;;;15.30;75.00;;;;;;9184007;19;19939;-66
2022/11/02 11:03:20;;;;;;;;;;;15.40;75.00;;;;;;9181345;19;19986;-66
2022/11/02 11:06:27;;;;;;;;;;;15.50;75.10;;;;;;9180700;19;19986;-68
2022/11/02 11:09:32;;;;;;;;;;;15.60;75.00;;;;;;9182843;19;19986;-67
2022/11/02 11:12:39;;;;;;;;;;;15.70;75.00;;;;;;9181233;19;19978;-66
2022/11/02 11:15:43;;;;;;;;;;;15.80;74.80;;;;;;9177747;19;19915;-66
2022/11/02 11:19:07;;;;;;;;;;;15.90;74.80;;;;;;9179556;19;19918;-66
2022/11/02 11:22:34;;;;;;;;;;;16.00;74.70;;;;;;9168970;19;19922;-67
2022/11/02 11:25:37;;;;;;;;;;;16.10;74.60;;;;;;9165759;19;19925;-66
2022/11/02 11:28:53;;;;;;;;;;;16.10;74.50;;;;;;9169352;19;19986;-68
2022/11/02 11:31:56;;;;;;;;;;;16.20;74.50;;;;;;9166066;19;20408;-66
2022/11/02 11:35:01;;;;;;;;;;;16.30;74.50;;;;;;9164326;19;19922;-66
2022/11/02 11:38:10;;;;;;;;;;;16.30;74.40;;;;;;9169687;19;19962;-67
2022/11/02 11:41:13;;;;;;;;;;;16.30;74.40;;;;;;9167316;19;19926;-66
2022/11/02 11:44:17;;;;;;;;;;;16.20;74.30;;;;;;9173323;19;19940;-66
2022/11/02 11:47:25;;;;;;;;;;;16.20;74.30;;;;;;9168304;19;19929;-66
2022/11/02 11:50:29;;;;;;;;;;;16.20;74.30;;;;;;9177010;19;19986;-65
2022/11/02 11:53:37;;;;;;;;;;;16.20;74.30;;;;;;9177787;19;19923;-66
2022/11/02 11:56:41;;;;;;;;;;;16.20;74.40;;;;;;9181962;19;19926;-66
2022/11/02 11:59:48;;;;;;;;;;;16.20;74.40;;;;;;9181138;19;20436;-66
2022/11/02 12:03:04;;;;;;;;;;;16.20;74.30;;;;;;9181325;19;19927;-66
2022/11/02 12:06:14;;;;;;;;;;;16.20;74.30;;;;;;9180205;19;20357;-65
2022/11/02 12:09:23;;;;;;;;;;;16.20;74.30;;;;;;9180962;19;20257;-66
2022/11/02 12:12:32;;;;;;;;;;;16.20;74.30;;;;;;9181517;19;20313;-66
2022/11/02 12:15:47;;;;;;;;;;;16.10;74.20;;;;;;9176017;19;19938;-64
2022/11/02 12:19:01;;;;;;;;;;;16.20;74.20;;;;;;9180389;19;19922;-66
2022/11/02 12:22:08;;;;;;;;;;;16.10;74.20;;;;;;9178812;19;19938;-65
2022/11/02 12:25:25;;;;;;;;;;;16.10;74.10;;;;;;9178375;19;19914;-65
2022/11/02 12:28:33;;;;;;;;;;;16.10;74.10;;;;;;9177841;19;19939;-65
2022/11/02 12:31:37;;;;;;;;;;;16.10;74.10;;;;;;9180369;19;19907;-65
2022/11/02 12:34:58;;;;;;;;;;;16.10;74.00;;;;;;9180194;19;19919;-66
2022/11/02 12:38:36;;;;;;;;;;;16.10;74.00;;;;;;9180705;19;19986;-66
2022/11/02 12:41:55;;;;;;;;;;;16.00;73.90;;;;;;9177657;19;19949;-66
2022/11/02 12:45:09;;;;;;;;;;;15.90;73.90;;;;;;9177914;19;19990;-65
2022/11/02 12:48:15;;;;;;;;;;;15.90;73.90;;;;;;9172276;19;20011;-65
2022/11/02 12:51:20;;;;;;;;;;;15.90;74.10;;;;;;9177123;19;20377;-66
2022/11/02 12:54:26;;;;;;;;;;;15.90;74.00;;;;;;9177912;19;20023;-64
2022/11/02 12:57:32;;;;;;;;;;;15.90;74.00;;;;;;9180548;19;19935;-64
2022/11/02 13:00:41;;;;;;;;;;;15.90;73.90;;;;;;9180136;19;19956;-66
2022/11/02 13:03:48;;;;;;;;;;;15.90;74.00;;;;;;9177292;19;19926;-64
2022/11/02 13:06:52;;;;;;;;;;;15.80;73.90;;;;;;9176872;19;19974;-64
2022/11/02 13:10:00;;;;;;;;;;;15.80;73.80;;;;;;9177948;19;20341;-64
2022/11/02 13:13:04;;;;;;;;;;;15.80;73.80;;;;;;9178924;19;19960;-64
2022/11/02 13:16:11;;;;;;;;;;;15.80;73.80;;;;;;9174871;19;19922;-66
2022/11/02 13:19:17;;;;;;;;;;;15.80;73.80;;;;;;9179661;19;19926;-65
2022/11/02 13:22:22;;;;;;;;;;;15.80;73.80;;;;;;9178423;19;19996;-65
2022/11/02 13:25:27;;;;;;;;;;;15.70;73.80;;;;;;9174868;19;19935;-64
2022/11/02 13:28:34;;;;;;;;;;;15.70;73.80;;;;;;9178312;19;19921;-64
2022/11/02 13:31:41;;;;;;;;;;;15.60;73.70;;;;;;9177146;19;19982;-64
2022/11/02 13:34:46;;;;;;;;;;;15.70;73.80;;;;;;9177105;19;19922;-64
2022/11/02 13:37:52;;;;;;;;;;;15.60;73.70;;;;;;9176767;19;19932;-65
2022/11/02 13:41:01;;;;;;;;;;;15.60;73.70;;;;;;9175687;19;19952;-65
2022/11/02 13:44:23;;;;;;;;;;;15.60;73.70;;;;;;9175648;19;19922;-67
2022/11/02 13:47:34;;;;;;;;;;;15.60;73.70;;;;;;9171365;19;19921;-64
2022/11/02 13:50:41;;;;;;;;;;;15.60;73.70;;;;;;9167877;19;19934;-66
2022/11/02 13:53:51;;;;;;;;;;;15.50;73.70;;;;;;9162190;19;19998;-65
2022/11/02 13:56:56;;;;;;;;;;;15.50;73.70;;;;;;9167966;19;19982;-68
2022/11/02 14:00:00;;;;;;;;;;;15.50;73.60;;;;;;9166057;19;19947;-66
2022/11/02 14:03:12;;;;;;;;;;;15.50;73.60;;;;;;9164717;19;19926;-65
2022/11/02 14:06:17;;;;;;;;;;;15.50;73.60;;;;;;9163564;19;19923;-67
2022/11/02 14:09:31;;;;;;;;;;;15.50;73.60;;;;;;9165296;19;19918;-66
2022/11/02 14:12:42;;;;;;;;;;;15.40;73.60;;;;;;9169636;19;19927;-65
2022/11/02 14:15:52;;;;;;;;;;;15.40;73.60;;;;;;9174875;19;19974;-66
2022/11/02 14:19:10;;;;;;;;;;;15.40;73.60;;;;;;9180211;19;20366;-65
2022/11/02 14:22:19;;;;;;;;;;;15.40;73.60;;;;;;9180753;19;20715;-65
2022/11/02 14:25:23;;;;;;;;;;;15.30;73.50;;;;;;9182025;19;19939;-67
2022/11/02 14:28:34;;;;;;;;;;;15.30;73.50;;;;;;9179076;19;19922;-67
2022/11/02 14:31:40;;;;;;;;;;;15.30;73.50;;;;;;9181427;19;19918;-64
2022/11/02 14:34:55;;;;;;;;;;;15.30;73.50;;;;;;9181397;19;19922;-64
2022/11/02 14:38:07;;;;;;;;;;;15.20;73.40;;;;;;9181807;19;20261;-68
2022/11/02 14:41:20;;;;;;;;;;;15.20;73.40;;;;;;9181010;19;19927;-66
2022/11/02 14:44:30;;;;;;;;;;;15.20;73.40;;;;;;9181483;19;19930;-66
2022/11/02 14:47:35;;;;;;;;;;;15.20;73.40;;;;;;9179557;19;19926;-64
2022/11/02 14:50:38;;;;;;;;;;;15.10;73.40;;;;;;9182076;19;20330;-67
2022/11/02 14:53:44;;;;;;;;;;;15.10;73.40;;;;;;9182212;19;19926;-66
2022/11/02 14:56:49;;;;;;;;;;;15.10;73.40;;;;;;9181272;19;19918;-65
2022/11/02 14:59:54;;;;;;;;;;;15.00;73.30;;;;;;9181212;19;19990;-66
2022/11/02 15:02:58;;;;;;;;;;;15.00;73.30;;;;;;9181030;19;19922;-64
2022/11/02 15:06:03;;;;;;;;;;;15.00;73.30;;;;;;9177710;19;19963;-64
2022/11/02 15:09:11;;;;;;;;;;;14.90;73.30;;;;;;9181070;19;19918;-64
2022/11/02 15:12:25;;;;;;;;;;;14.90;73.30;;;;;;9182186;19;19921;-65
2022/11/02 15:15:30;;;;;;;;;;;14.90;73.30;;;;;;9176776;19;19956;-66
2022/11/02 15:18:35;;;;;;;;;;;14.90;73.30;;;;;;9180528;19;19918;-66
2022/11/02 15:21:39;;;;;;;;;;;14.80;73.20;;;;;;9180932;19;20502;-64
2022/11/02 15:24:44;;;;;;;;;;;14.80;73.20;;;;;;9180687;19;20315;-66
2022/11/02 15:27:49;;;;;;;;;;;14.80;73.20;;;;;;9174809;19;19922;-65
2022/11/02 15:30:54;;;;;;;;;;;14.70;73.20;;;;;;9179944;19;20329;-64
2022/11/02 15:33:59;;;;;;;;;;;14.70;73.20;;;;;;9178045;19;19949;-65
2022/11/02 15:37:03;;;;;;;;;;;14.70;73.30;;;;;;9179527;19;19926;-65
2022/11/02 15:40:18;;;;;;;;;;;14.60;73.20;;;;;;9179812;19;19931;-66
2022/11/02 15:43:32;;;;;;;;;;;14.60;73.20;;;;;;9180626;19;19925;-66
2022/11/02 15:46:41;;;;;;;;;;;14.60;73.20;;;;;;9177789;19;19914;-67
2022/11/02 15:50:04;;;;;;;;;;;14.50;73.20;;;;;;9179628;19;20464;-66
2022/11/02 15:53:25;;;;;;;;;;;14.50;73.20;;;;;;9180666;19;20488;-64
2022/11/02 15:56:45;;;;;;;;;;;14.50;73.20;;;;;;9177838;19;19930;-65
2022/11/02 16:00:08;;;;;;;;;;;14.40;73.20;;;;;;9179189;19;19919;-66
2022/11/02 16:03:11;;;;;;;;;;;14.30;73.10;;;;;;9178530;19;19997;-65
2022/11/02 16:06:15;;;;;;;;;;;14.30;73.20;;;;;;9176557;19;19974;-64
2022/11/02 16:09:32;;;;;;;;;;;14.30;73.10;;;;;;9180496;19;19974;-65
2022/11/02 16:12:37;;;;;;;;;;;14.20;73.10;;;;;;9179269;19;20326;-65
2022/11/02 16:15:41;;;;;;;;;;;14.20;73.20;;;;;;9177374;19;19919;-64
2022/11/02 16:18:45;;;;;;;;;;;14.10;73.10;;;;;;9173408;19;19923;-64
2022/11/02 16:21:49;;;;;;;;;;;14.10;73.20;;;;;;9172195;19;19974;-65
2022/11/02 16:24:53;;;;;;;;;;;14.00;73.10;;;;;;9172208;19;20269;-67
2022/11/02 16:27:59;;;;;;;;;;;14.00;73.10;;;;;;9164377;19;20792;-68
2022/11/02 16:31:04;;;;;;;;;;;13.90;73.10;;;;;;9165172;19;20695;-66
2022/11/02 16:34:20;;;;;;;;;;;13.90;73.20;;;;;;9164565;19;19927;-66
2022/11/02 16:37:24;;;;;;;;;;;13.80;73.20;;;;;;9164125;19;20756;-65
2022/11/02 16:40:28;;;;;;;;;;;13.80;73.20;;;;;;9164319;19;20416;-67
2022/11/02 16:43:35;;;;;;;;;;;13.70;73.20;;;;;;9159896;19;19914;-66
2022/11/02 16:46:41;;;;;;;;;;;13.70;73.20;;;;;;9163760;19;19918;-65
2022/11/02 16:49:58;;;;;;;;;;;13.60;73.20;;;;;;9170275;19;20002;-65
2022/11/02 16:53:02;;;;;;;;;;;13.60;73.30;;;;;;9171103;19;19926;-65
2022/11/02 16:56:16;;;;;;;;;;;13.60;73.30;;;;;;9170554;19;20010;-65
2022/11/02 16:59:22;;;;;;;;;;;13.50;73.20;;;;;;9171021;19;19926;-66
2022/11/02 17:02:31;;;;;;;;;;;13.50;73.30;;;;;;9170385;19;20534;-65
2022/11/02 17:05:35;;;;;;;;;;;13.40;73.30;;;;;;9171164;19;19923;-65
2022/11/02 17:08:39;;;;;;;;;;;13.40;73.30;;;;;;9175224;19;19927;-64
2022/11/02 17:11:44;;;;;;;;;;;13.30;73.40;;;;;;9178619;19;20355;-64
2022/11/02 17:14:50;;;;;;;;;;;13.30;73.30;;;;;;9177389;19;19922;-64
2022/11/02 17:18:15;;;;;;;;;;;13.20;73.40;;;;;;9173137;19;19919;-68
2022/11/02 17:21:26;;;;;;;;;;;13.20;73.30;;;;;;9174860;19;19922;-64
2022/11/02 17:24:34;;;;;;;;;;;13.20;73.30;;;;;;9178506;19;20408;-66
2022/11/02 17:27:37;;;;;;;;;;;13.10;73.30;;;;;;9174193;19;19990;-65
2022/11/02 17:30:50;;;;;;;;;;;13.10;73.40;;;;;;9177741;19;19915;-65
2022/11/02 17:33:54;;;;;;;;;;;13.10;73.40;;;;;;9179078;19;19982;-65
2022/11/02 17:36:57;;;;;;;;;;;13.00;73.40;;;;;;9177678;19;19926;-66
2022/11/02 17:40:02;;;;;;;;;;;13.00;74.10;;;;;;9177738;19;19982;-64
2022/11/02 17:43:04;;;;;;;;;;;13.00;73.40;;;;;;9177793;19;19938;-64
2022/11/02 17:46:10;;;;;;;;;;;13.00;73.50;;;;;;9175443;19;19922;-64
2022/11/02 17:49:14;;;;;;;;;;;13.00;73.50;;;;;;9165267;19;19952;-64
2022/11/02 17:52:17;;;;;;;;;;;13.00;73.50;;;;;;9174941;19;19921;-65
2022/11/02 17:55:22;;;;;;;;;;;12.90;73.50;;;;;;9177093;19;19923;-65
2022/11/02 17:58:25;;;;;;;;;;;12.90;73.60;;;;;;9177786;19;20673;-65
2022/11/02 18:01:30;;;;;;;;;;;12.90;73.50;;;;;;9174953;19;19950;-64
2022/11/02 18:04:34;;;;;;;;;;;12.90;73.60;;;;;;9174538;19;19986;-65
2022/11/02 18:07:38;;;;;;;;;;;12.80;74.10;;;;;;9174940;19;20249;-65
2022/11/02 18:10:42;;;;;;;;;;;12.80;73.50;;;;;;9174604;19;19925;-63
2022/11/02 18:13:46;;;;;;;;;;;12.80;73.50;;;;;;9173534;19;19922;-64
2022/11/02 18:16:51;;;;;;;;;;;12.80;73.50;;;;;;9158890;19;19922;-63